Time;durP1;ratioP1;P1;durP2;ratioP2;P2;SDS_P1;SDS_P2;PMS_P1;PMS_P2;Temp;Humidity;BMP_temperature;BMP_pressure;BME280_temperature;BME280_humidity;BME280_pressure;Samples;Min_cycle;Max_cycle;Signal;HPM_P1;HPM_P2
2022/12/31 00:00:58;;;;;;;4.30;2.53;;;;;;;;;;5053290;28;20107;-85
2022/12/31 00:03:24;;;;;;;3.42;3.22;;;;;;;;;;5054175;28;20053;-86
2022/12/31 00:05:51;;;;;;;2.63;2.42;;;;;;;;;;5054453;28;20041;-86
2022/12/31 00:08:19;;;;;;;4.80;3.53;;;;;;;;;;5053908;28;20053;-86
2022/12/31 00:10:45;;;;;;;2.85;2.72;;;;;;;;;;5054396;28;20095;-86
2022/12/31 00:13:12;;;;;;;2.20;1.98;;;;;;;;;;5054413;28;20414;-86
2022/12/31 00:15:39;;;;;;;1.85;1.75;;;;;;;;;;5054189;28;20057;-87
2022/12/31 00:18:06;;;;;;;2.95;2.75;;;;;;;;;;5051686;28;20075;-87
2022/12/31 00:20:32;;;;;;;5.05;4.22;;;;;;;;;;5033968;28;20490;-87
2022/12/31 00:22:59;;;;;;;2.55;2.17;;;;;;;;;;5034430;28;20111;-87
2022/12/31 00:25:27;;;;;;;2.58;2.38;;;;;;;;;;5034014;28;20475;-87
2022/12/31 00:27:54;;;;;;;6.13;3.80;;;;;;;;;;5033852;28;20092;-87
2022/12/31 00:30:21;;;;;;;2.58;2.42;;;;;;;;;;5033689;28;20112;-87
2022/12/31 00:32:47;;;;;;;4.38;4.10;;;;;;;;;;5033663;28;20049;-87
2022/12/31 00:35:13;;;;;;;4.57;4.28;;;;;;;;;;5037848;28;20459;-87
2022/12/31 00:37:40;;;;;;;4.30;3.75;;;;;;;;;;5033836;28;20045;-87
2022/12/31 00:40:07;;;;;;;3.70;3.47;;;;;;;;;;5033763;28;20049;-86
2022/12/31 00:42:35;;;;;;;2.90;2.70;;;;;;;;;;5034083;28;20049;-87
2022/12/31 00:45:02;;;;;;;2.33;2.22;;;;;;;;;;5033516;28;20049;-86
2022/12/31 00:47:28;;;;;;;1.90;1.80;;;;;;;;;;5033229;28;20492;-86
2022/12/31 00:49:55;;;;;;;3.28;3.05;;;;;;;;;;5033796;28;20050;-86
2022/12/31 00:52:21;;;;;;;2.33;2.13;;;;;;;;;;5046955;28;20450;-87
2022/12/31 00:54:48;;;;;;;2.63;2.53;;;;;;;;;;5053169;28;20114;-86
2022/12/31 00:57:14;;;;;;;3.60;2.35;;;;;;;;;;5052104;28;20479;-86
2022/12/31 00:59:42;;;;;;;3.60;3.40;;;;;;;;;;5053292;28;20118;-86
2022/12/31 01:02:09;;;;;;;2.60;2.40;;;;;;;;;;5053192;28;20096;-86
2022/12/31 01:04:35;;;;;;;3.63;3.42;;;;;;;;;;5053407;28;20045;-86
2022/12/31 01:07:01;;;;;;;4.35;3.97;;;;;;;;;;5052929;28;20564;-85
2022/12/31 01:09:28;;;;;;;2.55;2.42;;;;;;;;;;5052600;28;20192;-86
2022/12/31 01:11:54;;;;;;;2.58;2.40;;;;;;;;;;5053170;28;20052;-86
2022/12/31 01:14:21;;;;;;;3.67;3.33;;;;;;;;;;5052976;28;20091;-86
2022/12/31 01:16:50;;;;;;;4.18;3.42;;;;;;;;;;5053210;28;20108;-86
2022/12/31 01:19:17;;;;;;;2.28;2.17;;;;;;;;;;5052899;28;20057;-86
2022/12/31 01:21:44;;;;;;;5.55;5.25;;;;;;;;;;5051815;28;20110;-87
2022/12/31 01:24:11;;;;;;;3.40;2.90;;;;;;;;;;5037238;28;20102;-88
2022/12/31 01:26:38;;;;;;;3.13;2.95;;;;;;;;;;5068223;28;20101;-87
2022/12/31 01:29:04;;;;;;;3.28;2.95;;;;;;;;;;5043383;28;20049;-88
2022/12/31 01:31:31;;;;;;;7.88;3.45;;;;;;;;;;5032700;28;20054;-86
2022/12/31 01:33:59;;;;;;;1.95;1.85;;;;;;;;;;5032813;28;20100;-86
2022/12/31 01:36:26;;;;;;;3.90;2.38;;;;;;;;;;5032892;28;20053;-86
2022/12/31 01:38:53;;;;;;;6.13;5.18;;;;;;;;;;5033014;28;20104;-87
2022/12/31 01:41:21;;;;;;;5.13;3.03;;;;;;;;;;5033649;28;20050;-87
2022/12/31 01:43:48;;;;;;;2.15;2.03;;;;;;;;;;5055711;28;20106;-86
2022/12/31 01:46:19;;;;;;;3.25;2.95;;;;;;;;;;5052640;28;20114;-86
2022/12/31 01:48:47;;;;;;;4.55;4.22;;;;;;;;;;5052247;28;20102;-86
2022/12/31 01:51:15;;;;;;;1.58;1.48;;;;;;;;;;5052693;28;20545;-86
2022/12/31 01:53:43;;;;;;;2.70;2.50;;;;;;;;;;5052328;28;20418;-86
2022/12/31 01:56:09;;;;;;;2.10;2.00;;;;;;;;;;5052672;28;20049;-86
2022/12/31 01:58:37;;;;;;;3.63;3.33;;;;;;;;;;5053735;28;20106;-87
2022/12/31 02:01:04;;;;;;;1.83;1.08;;;;;;;;;;5052454;28;20053;-86
2022/12/31 02:03:31;;;;;;;5.03;4.57;;;;;;;;;;5052150;28;20103;-86
2022/12/31 02:06:01;;;;;;;4.15;3.90;;;;;;;;;;5052495;28;20049;-86
2022/12/31 02:08:29;;;;;;;2.47;2.38;;;;;;;;;;5054943;28;20139;-86
2022/12/31 02:10:55;;;;;;;4.55;4.25;;;;;;;;;;5056432;28;20056;-86
2022/12/31 02:13:22;;;;;;;2.53;2.33;;;;;;;;;;5056534;28;20053;-86
2022/12/31 02:15:53;;;;;;;1.63;1.52;;;;;;;;;;5067371;28;20048;-85
2022/12/31 02:18:22;;;;;;;2.33;2.13;;;;;;;;;;5076116;28;20044;-86
2022/12/31 02:20:57;;;;;;;1.52;1.42;;;;;;;;;;5076287;28;20049;-84
2022/12/31 02:23:30;;;;;;;4.07;3.88;;;;;;;;;;5076383;28;20049;-84
2022/12/31 02:26:14;;;;;;;1.52;1.45;;;;;;;;;;5076037;28;20056;-84
2022/12/31 02:28:48;;;;;;;2.63;1.23;;;;;;;;;;5075919;28;20049;-85
2022/12/31 02:31:17;;;;;;;2.42;2.22;;;;;;;;;;5075701;28;20463;-86
2022/12/31 02:33:49;;;;;;;2.25;2.05;;;;;;;;;;5069547;28;20052;-85
2022/12/31 02:36:18;;;;;;;1.60;1.50;;;;;;;;;;5075797;28;20048;-85
2022/12/31 02:38:46;;;;;;;2.58;2.45;;;;;;;;;;5067774;28;20052;-85
2022/12/31 02:41:48;;;;;;;1.63;1.52;;;;;;;;;;5055818;28;20044;-84
2022/12/31 02:44:00;;;;;;;1.75;1.65;;;;;;;;;;5055584;28;20399;-85
2022/12/31 02:46:31;;;;;;;3.28;2.97;;;;;;;;;;5055784;28;20498;-85
2022/12/31 02:49:02;;;;;;;0.98;0.93;;;;;;;;;;5046678;28;20410;-84
2022/12/31 02:51:34;;;;;;;1.63;1.52;;;;;;;;;;5057371;28;20054;-84
2022/12/31 02:54:00;;;;;;;;;;;;;;;;;;5047037;28;20049;-84
2022/12/31 02:56:28;;;;;;;2.08;0.68;;;;;;;;;;5035236;28;19921;-85
2022/12/31 03:04:32;;;;;;;1.23;1.20;;;;;;;;;;5035397;28;20052;-85
2022/12/31 03:07:00;;;;;;;2.35;2.17;;;;;;;;;;5049666;28;20107;-85
2022/12/31 03:09:26;;;;;;;2.33;2.17;;;;;;;;;;5055321;28;20114;-84
2022/12/31 03:14:33;;;;;;;1.98;1.80;;;;;;;;;;5020039;28;20053;-85
2022/12/31 03:17:01;;;;;;;2.60;2.47;;;;;;;;;;5035390;28;20050;-85
2022/12/31 03:22:27;;;;;;;6.47;4.45;;;;;;;;;;5035246;28;20115;-86
2022/12/31 03:27:38;;;;;;;2.08;1.98;;;;;;;;;;5035408;28;20061;-85
2022/12/31 03:30:05;;;;;;;2.22;2.13;;;;;;;;;;5034728;28;20403;-84
2022/12/31 03:32:32;;;;;;;1.15;1.15;;;;;;;;;;5035037;28;20107;-85
2022/12/31 03:34:59;;;;;;;1.90;1.75;;;;;;;;;;5035169;28;20453;-85
2022/12/31 03:37:25;;;;;;;2.20;2.10;;;;;;;;;;5034999;28;20049;-85
2022/12/31 03:39:52;;;;;;;2.67;2.47;;;;;;;;;;5040409;28;20091;-85
2022/12/31 03:42:18;;;;;;;2.83;2.63;;;;;;;;;;5074289;28;20498;-84
2022/12/31 03:44:45;;;;;;;3.92;3.63;;;;;;;;;;5062208;28;20277;-86
2022/12/31 03:47:11;;;;;;;2.55;2.42;;;;;;;;;;5054457;28;20061;-85
2022/12/31 03:49:39;;;;;;;3.10;2.90;;;;;;;;;;5054092;28;20055;-85
2022/12/31 03:52:07;;;;;;;3.70;3.08;;;;;;;;;;5054595;28;20079;-84
2022/12/31 03:54:34;;;;;;;2.50;2.22;;;;;;;;;;5044256;28;20081;-84
2022/12/31 03:57:00;;;;;;;4.22;3.53;;;;;;;;;;5047735;28;20102;-84
2022/12/31 03:59:27;;;;;;;5.00;3.35;;;;;;;;;;5045605;28;20053;-84
2022/12/31 04:01:53;;;;;;;2.42;2.33;;;;;;;;;;5034326;28;20107;-84
2022/12/31 04:04:20;;;;;;;1.77;1.65;;;;;;;;;;5034353;28;20049;-84
2022/12/31 04:06:48;;;;;;;4.75;4.40;;;;;;;;;;5033812;28;20050;-84
2022/12/31 04:09:14;;;;;;;2.00;1.90;;;;;;;;;;5034041;28;20045;-84
2022/12/31 04:11:41;;;;;;;2.67;2.38;;;;;;;;;;5034077;28;20180;-84
2022/12/31 04:14:07;;;;;;;1.50;1.40;;;;;;;;;;5041060;28;20410;-85
2022/12/31 04:16:34;;;;;;;5.07;4.75;;;;;;;;;;5073838;28;20045;-85
2022/12/31 04:19:00;;;;;;;3.33;3.13;;;;;;;;;;5073886;28;20048;-85
2022/12/31 04:21:27;;;;;;;0.82;0.82;;;;;;;;;;5074302;28;20110;-85
2022/12/31 04:23:55;;;;;;;2.40;2.28;;;;;;;;;;5073766;28;20090;-85
2022/12/31 04:26:21;;;;;;;2.60;2.50;;;;;;;;;;5074238;28;20114;-85
2022/12/31 04:28:48;;;;;;;4.97;2.67;;;;;;;;;;5074029;28;20106;-85
2022/12/31 04:31:14;;;;;;;2.25;1.63;;;;;;;;;;5063635;28;20041;-85
2022/12/31 04:33:41;;;;;;;2.17;2.08;;;;;;;;;;5053659;28;20114;-85
2022/12/31 04:36:08;;;;;;;3.47;1.83;;;;;;;;;;5053793;28;20044;-85
2022/12/31 04:38:34;;;;;;;3.72;2.88;;;;;;;;;;5053688;28;20052;-85
2022/12/31 04:41:17;;;;;;;1.88;1.77;;;;;;;;;;5054212;28;20076;-85
2022/12/31 04:43:44;;;;;;;3.50;3.28;;;;;;;;;;5053345;28;20088;-85
2022/12/31 04:46:11;;;;;;;2.85;2.75;;;;;;;;;;5053806;28;20106;-86
2022/12/31 04:48:38;;;;;;;3.10;2.90;;;;;;;;;;5071579;28;20045;-85
2022/12/31 04:51:04;;;;;;;2.13;1.92;;;;;;;;;;5073643;28;20106;-85
2022/12/31 04:53:31;;;;;;;5.72;3.05;;;;;;;;;;5073640;28;20045;-85
2022/12/31 04:55:58;;;;;;;2.42;1.98;;;;;;;;;;5073576;28;20052;-85
2022/12/31 04:58:26;;;;;;;1.75;1.65;;;;;;;;;;5072864;28;20048;-84
2022/12/31 05:00:53;;;;;;;3.15;2.85;;;;;;;;;;5073533;28;20044;-85
2022/12/31 05:03:20;;;;;;;2.33;2.22;;;;;;;;;;5073021;28;20040;-85
2022/12/31 05:05:48;;;;;;;2.60;2.45;;;;;;;;;;5066108;28;20057;-85
2022/12/31 05:08:15;;;;;;;2.35;2.22;;;;;;;;;;5072965;28;20095;-85
2022/12/31 05:10:42;;;;;;;1.20;1.20;;;;;;;;;;5073104;28;20048;-85
2022/12/31 05:13:08;;;;;;;3.00;2.80;;;;;;;;;;5072746;28;20453;-85
2022/12/31 05:15:36;;;;;;;2.55;2.42;;;;;;;;;;5072887;28;20102;-84
2022/12/31 05:18:03;;;;;;;1.33;1.27;;;;;;;;;;5073052;28;20101;-84
2022/12/31 05:20:30;;;;;;;1.98;1.90;;;;;;;;;;5061192;28;20040;-84
2022/12/31 05:22:56;;;;;;;1.42;1.40;;;;;;;;;;5032678;28;20049;-85
2022/12/31 05:25:23;;;;;;;1.95;1.85;;;;;;;;;;5032880;28;20057;-84
2022/12/31 05:27:49;;;;;;;2.45;2.28;;;;;;;;;;5032924;28;20049;-84
2022/12/31 05:30:17;;;;;;;3.83;1.95;;;;;;;;;;5032436;28;20057;-84
2022/12/31 05:32:45;;;;;;;2.00;1.92;;;;;;;;;;5032102;28;20521;-85
2022/12/31 05:35:12;;;;;;;1.50;1.40;;;;;;;;;;5032866;28;20111;-84
2022/12/31 05:37:39;;;;;;;4.13;3.92;;;;;;;;;;5032416;28;20588;-84
2022/12/31 05:40:06;;;;;;;2.17;2.08;;;;;;;;;;5043587;28;20120;-86
2022/12/31 05:42:33;;;;;;;1.30;1.30;;;;;;;;;;5032442;28;20454;-87
2022/12/31 05:44:59;;;;;;;2.67;2.58;;;;;;;;;;5032481;28;20053;-85
2022/12/31 05:47:26;;;;;;;3.20;2.95;;;;;;;;;;5032910;28;20068;-86
2022/12/31 05:49:54;;;;;;;2.83;2.67;;;;;;;;;;5032572;28;20103;-85
2022/12/31 05:52:20;;;;;;;4.15;3.80;;;;;;;;;;5032148;28;20057;-85
2022/12/31 05:54:47;;;;;;;1.60;1.50;;;;;;;;;;5032360;28;20065;-85
2022/12/31 05:57:13;;;;;;;4.05;3.13;;;;;;;;;;5052282;28;20445;-85
2022/12/31 05:59:40;;;;;;;1.50;1.40;;;;;;;;;;5052198;28;20067;-85
2022/12/31 06:02:06;;;;;;;0.77;0.77;;;;;;;;;;5052101;28;20048;-85
2022/12/31 06:04:33;;;;;;;1.35;1.27;;;;;;;;;;5052013;28;20103;-86
2022/12/31 06:07:01;;;;;;;2.80;2.63;;;;;;;;;;5052205;28;20052;-86
2022/12/31 06:09:27;;;;;;;2.60;2.42;;;;;;;;;;5050273;28;20106;-85
2022/12/31 06:11:54;;;;;;;3.45;3.25;;;;;;;;;;5034219;28;20558;-83
2022/12/31 06:14:20;;;;;;;3.97;3.63;;;;;;;;;;5069283;28;20083;-86
2022/12/31 06:16:47;;;;;;;2.88;2.67;;;;;;;;;;5071972;28;20104;-84
2022/12/31 06:19:13;;;;;;;1.40;1.30;;;;;;;;;;5071476;28;20049;-84
2022/12/31 06:21:40;;;;;;;2.72;2.53;;;;;;;;;;5040575;28;20053;-84
2022/12/31 06:24:08;;;;;;;2.03;1.92;;;;;;;;;;5032022;28;20049;-85
2022/12/31 06:26:34;;;;;;;2.05;1.95;;;;;;;;;;5050074;28;20053;-85
2022/12/31 06:29:01;;;;;;;1.95;1.85;;;;;;;;;;5052489;28;20061;-84
2022/12/31 06:31:27;;;;;;;2.72;1.45;;;;;;;;;;5033739;28;20057;-84
2022/12/31 06:33:54;;;;;;;2.35;2.25;;;;;;;;;;5031450;28;20407;-84
2022/12/31 06:36:21;;;;;;;2.47;2.28;;;;;;;;;;5031440;28;20050;-85
2022/12/31 06:38:47;;;;;;;2.08;1.98;;;;;;;;;;5031448;28;20049;-85
2022/12/31 06:41:17;;;;;;;2.95;2.75;;;;;;;;;;5046288;28;20056;-86
2022/12/31 06:43:43;;;;;;;2.90;2.70;;;;;;;;;;5051044;28;20053;-84
2022/12/31 06:46:11;;;;;;;5.47;3.13;;;;;;;;;;5058523;28;20472;-83
2022/12/31 06:48:38;;;;;;;1.73;1.63;;;;;;;;;;5071004;28;20106;-84
2022/12/31 06:51:05;;;;;;;1.60;1.50;;;;;;;;;;5045067;28;20045;-83
2022/12/31 06:53:31;;;;;;;1.20;1.13;;;;;;;;;;5031824;28;20452;-83
2022/12/31 06:55:58;;;;;;;1.95;1.85;;;;;;;;;;5034967;28;20049;-84
2022/12/31 06:58:26;;;;;;;5.13;2.38;;;;;;;;;;5049858;28;20568;-84
2022/12/31 07:00:56;;;;;;;2.13;1.98;;;;;;;;;;5049943;28;20094;-86
2022/12/31 07:03:28;;;;;;;3.67;2.20;;;;;;;;;;5058600;28;20052;-86
2022/12/31 07:05:58;;;;;;;2.63;2.42;;;;;;;;;;5044321;28;20103;-85
2022/12/31 07:08:33;;;;;;;2.63;2.42;;;;;;;;;;5034931;28;20499;-85
2022/12/31 07:11:03;;;;;;;2.08;1.95;;;;;;;;;;5034578;28;20415;-85
2022/12/31 07:13:45;;;;;;;1.77;1.67;;;;;;;;;;5034607;28;20053;-85
2022/12/31 07:16:20;;;;;;;2.50;2.40;;;;;;;;;;5034504;28;20065;-86
2022/12/31 07:18:51;;;;;;;5.10;4.70;;;;;;;;;;5063950;28;20114;-87
2022/12/31 07:21:19;;;;;;;3.33;3.03;;;;;;;;;;5046435;28;20053;-85
2022/12/31 07:23:46;;;;;;;2.75;2.55;;;;;;;;;;5034388;28;20054;-85
2022/12/31 07:26:17;;;;;;;1.70;1.60;;;;;;;;;;5044402;28;20457;-86
2022/12/31 07:28:50;;;;;;;4.45;4.15;;;;;;;;;;5053706;28;20049;-85
2022/12/31 07:31:19;;;;;;;2.97;2.78;;;;;;;;;;5041852;28;20099;-85
2022/12/31 07:33:50;;;;;;;3.47;3.17;;;;;;;;;;5033989;28;20084;-86
2022/12/31 07:36:21;;;;;;;2.22;2.13;;;;;;;;;;5033831;28;20517;-86
2022/12/31 07:38:51;;;;;;;12.70;4.75;;;;;;;;;;5034024;28;20053;-86
2022/12/31 07:41:21;;;;;;;6.05;5.63;;;;;;;;;;5033954;28;20560;-85
2022/12/31 07:43:53;;;;;;;9.68;7.32;;;;;;;;;;5061604;28;20061;-86
2022/12/31 07:46:26;;;;;;;9.20;8.43;;;;;;;;;;5049101;28;20049;-85
2022/12/31 07:48:53;;;;;;;8.13;7.40;;;;;;;;;;5033587;28;20053;-86
2022/12/31 07:51:20;;;;;;;6.45;5.85;;;;;;;;;;5033305;28;20050;-85
2022/12/31 07:53:46;;;;;;;5.30;5.00;;;;;;;;;;5034540;28;20110;-87
2022/12/31 07:56:13;;;;;;;5.25;4.85;;;;;;;;;;5034271;28;20049;-87
2022/12/31 07:58:47;;;;;;;5.13;4.00;;;;;;;;;;5034691;28;20049;-87
2022/12/31 08:01:16;;;;;;;6.40;5.32;;;;;;;;;;5034482;28;20095;-87
2022/12/31 08:03:47;;;;;;;5.85;5.28;;;;;;;;;;5034455;28;20093;-87
2022/12/31 08:06:18;;;;;;;8.45;5.65;;;;;;;;;;5033769;28;20049;-87
2022/12/31 08:08:49;;;;;;;6.63;5.13;;;;;;;;;;5034208;28;20418;-88
2022/12/31 08:11:19;;;;;;;5.20;4.82;;;;;;;;;;5034061;28;20099;-86
2022/12/31 08:13:45;;;;;;;5.63;5.22;;;;;;;;;;5034083;28;20053;-87
2022/12/31 08:16:12;;;;;;;6.30;5.80;;;;;;;;;;5042866;28;20056;-85
2022/12/31 08:18:41;;;;;;;4.47;4.03;;;;;;;;;;5053503;28;20049;-85
2022/12/31 08:21:11;;;;;;;6.60;6.10;;;;;;;;;;5052194;28;20098;-86
2022/12/31 08:23:45;;;;;;;5.95;5.53;;;;;;;;;;5059407;28;20568;-86
2022/12/31 08:26:17;;;;;;;4.47;3.30;;;;;;;;;;5052260;28;20571;-85
2022/12/31 08:28:50;;;;;;;4.38;4.07;;;;;;;;;;5070001;28;20559;-85
2022/12/31 08:31:19;;;;;;;4.65;4.35;;;;;;;;;;5050161;28;20104;-86
2022/12/31 08:33:50;;;;;;;7.70;5.63;;;;;;;;;;5062696;28;20056;-86
2022/12/31 08:36:16;;;;;;;;;;;;;;;;;;5050411;28;20111;-86
2022/12/31 08:38:45;;;;;;;7.45;6.95;;;;;;;;;;5066490;28;20336;-86
2022/12/31 08:41:16;;;;;;;7.28;6.68;;;;;;;;;;5052139;28;20045;-86
2022/12/31 08:43:49;;;;;;;3.10;2.88;;;;;;;;;;5062631;28;20045;-85
2022/12/31 08:46:19;;;;;;;4.25;3.95;;;;;;;;;;5055617;28;20051;-85
2022/12/31 08:48:47;;;;;;;8.70;7.50;;;;;;;;;;5071073;28;20048;-85
2022/12/31 08:51:17;;;;;;;6.10;5.60;;;;;;;;;;5068774;28;20067;-85
2022/12/31 08:53:44;;;;;;;7.13;6.53;;;;;;;;;;5061858;28;20049;-85
2022/12/31 08:56:18;;;;;;;6.43;5.15;;;;;;;;;;5060329;28;20556;-87
2022/12/31 08:58:47;;;;;;;6.72;4.45;;;;;;;;;;5053580;28;20061;-86
2022/12/31 09:01:17;;;;;;;5.28;4.78;;;;;;;;;;5053572;28;20098;-86
2022/12/31 09:04:07;;;;;;;3.85;3.55;;;;;;;;;;5057784;28;20052;-86
2022/12/31 09:06:38;;;;;;;2.85;2.65;;;;;;;;;;5047639;28;20457;-87
2022/12/31 09:09:10;;;;;;;2.42;2.22;;;;;;;;;;5053312;28;20453;-87
2022/12/31 09:11:45;;;;;;;11.95;4.22;;;;;;;;;;5053239;28;20102;-87
2022/12/31 09:14:25;;;;;;;4.15;3.83;;;;;;;;;;5045133;28;20068;-87
2022/12/31 09:16:55;;;;;;;4.95;4.55;;;;;;;;;;5032540;28;20049;-87
2022/12/31 09:19:21;;;;;;;2.38;2.22;;;;;;;;;;5033000;28;20053;-87
2022/12/31 09:21:50;;;;;;;3.45;3.33;;;;;;;;;;5033309;28;20099;-86
2022/12/31 09:24:17;;;;;;;4.88;4.15;;;;;;;;;;5035583;28;20049;-87
2022/12/31 09:26:49;;;;;;;5.47;5.13;;;;;;;;;;5033169;28;20095;-87
2022/12/31 09:29:23;;;;;;;4.10;3.50;;;;;;;;;;5032661;28;20046;-87
2022/12/31 09:31:52;;;;;;;6.03;4.60;;;;;;;;;;5047313;28;20107;-88
2022/12/31 09:34:21;;;;;;;4.15;3.83;;;;;;;;;;5052593;28;20079;-87
2022/12/31 09:36:51;;;;;;;3.95;3.72;;;;;;;;;;5052938;28;20056;-87
2022/12/31 09:39:25;;;;;;;4.07;3.65;;;;;;;;;;5046319;28;20382;-86
2022/12/31 09:42:10;;;;;;;3.28;3.05;;;;;;;;;;5032185;28;20498;-87
2022/12/31 09:44:58;;;;;;;3.33;2.92;;;;;;;;;;5031996;28;20104;-86
2022/12/31 09:47:48;;;;;;;5.93;3.47;;;;;;;;;;5032498;28;20057;-86
2022/12/31 09:50:18;;;;;;;8.82;4.57;;;;;;;;;;5042878;28;20044;-87
2022/12/31 09:53:11;;;;;;;4.45;2.40;;;;;;;;;;5035469;28;20462;-87
2022/12/31 09:55:39;;;;;;;5.03;4.60;;;;;;;;;;5031936;28;20557;-88
2022/12/31 09:58:16;;;;;;;6.00;5.65;;;;;;;;;;5031818;28;20057;-87
2022/12/31 10:00:44;;;;;;;3.83;3.53;;;;;;;;;;5031975;28;20053;-87
2022/12/31 10:03:19;;;;;;;6.25;4.78;;;;;;;;;;5031950;28;20053;-87
2022/12/31 10:05:49;;;;;;;3.35;3.15;;;;;;;;;;5031640;28;20450;-87
2022/12/31 10:08:28;;;;;;;2.50;2.30;;;;;;;;;;5032036;28;20054;-87
2022/12/31 10:10:57;;;;;;;5.45;4.55;;;;;;;;;;5031964;28;20095;-88
2022/12/31 10:13:38;;;;;;;3.92;3.58;;;;;;;;;;5051538;28;20102;-87
2022/12/31 10:16:22;;;;;;;4.88;4.45;;;;;;;;;;5050443;28;20044;-87
2022/12/31 10:18:54;;;;;;;7.40;3.75;;;;;;;;;;5051792;28;20053;-87
2022/12/31 10:21:33;;;;;;;4.35;4.15;;;;;;;;;;5051825;28;20053;-88
2022/12/31 10:24:17;;;;;;;6.53;5.90;;;;;;;;;;5051601;28;20410;-88
2022/12/31 10:26:51;;;;;;;9.23;8.13;;;;;;;;;;5051759;28;20114;-88
2022/12/31 10:29:23;;;;;;;12.75;6.05;;;;;;;;;;5053639;28;20096;-88
2022/12/31 10:31:57;;;;;;;6.65;5.10;;;;;;;;;;5055503;28;20119;-88
2022/12/31 10:34:26;;;;;;;6.32;5.00;;;;;;;;;;5055738;28;20106;-88
2022/12/31 10:36:54;;;;;;;5.03;4.55;;;;;;;;;;5055237;28;20041;-89
2022/12/31 10:39:27;;;;;;;9.20;8.07;;;;;;;;;;5055213;28;20057;-88
2022/12/31 10:42:12;;;;;;;7.82;7.13;;;;;;;;;;5055280;28;20090;-88
2022/12/31 10:45:12;;;;;;;6.68;5.70;;;;;;;;;;5055162;28;20057;-88
2022/12/31 10:47:59;;;;;;;7.50;6.82;;;;;;;;;;5055591;28;20095;-88
2022/12/31 10:50:39;;;;;;;4.30;4.00;;;;;;;;;;5055108;28;20056;-88
2022/12/31 10:53:18;;;;;;;5.75;5.20;;;;;;;;;;5055127;28;20099;-88
2022/12/31 10:55:59;;;;;;;6.43;4.50;;;;;;;;;;5055339;28;20053;-88
2022/12/31 10:58:46;;;;;;;5.10;4.60;;;;;;;;;;5054867;28;20045;-88
2022/12/31 11:01:17;;;;;;;5.72;5.22;;;;;;;;;;5045466;28;20162;-88
2022/12/31 11:03:57;;;;;;;4.18;3.88;;;;;;;;;;5055139;28;20095;-88
2022/12/31 11:06:56;;;;;;;5.03;4.43;;;;;;;;;;5053772;28;20103;-88
2022/12/31 11:09:50;;;;;;;6.47;5.95;;;;;;;;;;5012512;28;20120;-88
2022/12/31 11:12:26;;;;;;;4.70;4.32;;;;;;;;;;5020961;28;20049;-88
2022/12/31 11:15:16;;;;;;;4.07;3.67;;;;;;;;;;5032765;28;20049;-88
2022/12/31 11:17:42;;;;;;;;;;;;;;;;;;5033237;28;20045;-88
2022/12/31 11:20:23;;;;;;;3.83;3.63;;;;;;;;;;5032688;28;19925;-88
2022/12/31 11:22:56;;;;;;;3.60;3.40;;;;;;;;;;5031799;28;20132;-88
2022/12/31 11:25:28;;;;;;;6.05;4.82;;;;;;;;;;5032560;28;20049;-87
2022/12/31 11:28:04;;;;;;;8.70;7.88;;;;;;;;;;5019950;28;20049;-87
2022/12/31 11:30:37;;;;;;;5.13;4.50;;;;;;;;;;5012973;28;20808;-88
2022/12/31 11:33:11;;;;;;;8.52;5.78;;;;;;;;;;5012628;28;20058;-87
2022/12/31 11:35:49;;;;;;;4.65;4.35;;;;;;;;;;5013049;28;20053;-87
2022/12/31 11:38:21;;;;;;;5.38;4.90;;;;;;;;;;5027544;28;20057;-87
2022/12/31 11:40:54;;;;;;;4.63;4.32;;;;;;;;;;5047122;28;20098;-88
2022/12/31 11:43:23;;;;;;;4.35;4.05;;;;;;;;;;5054244;28;20114;-88
2022/12/31 11:46:02;;;;;;;7.50;5.10;;;;;;;;;;5054094;28;20449;-87
2022/12/31 11:48:32;;;;;;;7.78;5.40;;;;;;;;;;5054117;28;20102;-87
2022/12/31 11:51:06;;;;;;;6.18;5.72;;;;;;;;;;5054061;28;20203;-88
2022/12/31 11:53:50;;;;;;;7.72;5.75;;;;;;;;;;5053315;28;20478;-87
2022/12/31 11:56:17;;;;;;;5.20;4.80;;;;;;;;;;5054129;28;20111;-87
2022/12/31 11:58:46;;;;;;;10.68;7.70;;;;;;;;;;5054370;28;20128;-87
2022/12/31 12:01:16;;;;;;;8.30;6.03;;;;;;;;;;5054507;28;20457;-87
2022/12/31 12:03:43;;;;;;;6.47;5.63;;;;;;;;;;5054071;28;20049;-87
2022/12/31 12:06:12;;;;;;;5.72;5.13;;;;;;;;;;5054080;28;20498;-86
2022/12/31 12:08:39;;;;;;;7.18;6.50;;;;;;;;;;5054040;28;20491;-87
2022/12/31 12:11:07;;;;;;;5.03;4.70;;;;;;;;;;5054015;28;20052;-87
2022/12/31 12:13:34;;;;;;;9.32;4.32;;;;;;;;;;5053428;28;20390;-87
2022/12/31 12:16:01;;;;;;;6.70;5.22;;;;;;;;;;5053507;28;20053;-87
2022/12/31 12:18:29;;;;;;;4.53;3.92;;;;;;;;;;5053460;28;20491;-87
2022/12/31 12:21:03;;;;;;;7.40;6.88;;;;;;;;;;5054273;28;20061;-87
2022/12/31 12:23:31;;;;;;;7.32;5.28;;;;;;;;;;5053619;28;20048;-87
2022/12/31 12:25:58;;;;;;;6.80;6.00;;;;;;;;;;5053366;28;20061;-87
2022/12/31 12:28:25;;;;;;;14.68;5.47;;;;;;;;;;5053279;28;20487;-87
2022/12/31 12:30:56;;;;;;;7.38;6.40;;;;;;;;;;5053034;28;20053;-88
2022/12/31 12:33:23;;;;;;;7.03;6.32;;;;;;;;;;5053217;28;20052;-87
2022/12/31 12:35:49;;;;;;;6.65;6.20;;;;;;;;;;5053168;28;20044;-87
2022/12/31 12:38:16;;;;;;;5.93;5.50;;;;;;;;;;5053428;28;20053;-87
2022/12/31 12:40:54;;;;;;;5.60;5.28;;;;;;;;;;5053128;28;20581;-87
2022/12/31 12:43:21;;;;;;;6.18;5.40;;;;;;;;;;5052991;28;20049;-87
2022/12/31 12:45:48;;;;;;;8.23;7.55;;;;;;;;;;5053403;28;20059;-87
2022/12/31 12:48:17;;;;;;;7.32;6.82;;;;;;;;;;5053542;28;20041;-87
2022/12/31 12:50:45;;;;;;;7.20;5.70;;;;;;;;;;5052875;28;20391;-87
2022/12/31 12:53:17;;;;;;;8.82;4.57;;;;;;;;;;5052822;28;20041;-87
2022/12/31 12:55:48;;;;;;;8.40;6.00;;;;;;;;;;5053156;28;20045;-87
2022/12/31 12:58:24;;;;;;;4.55;4.25;;;;;;;;;;5042441;28;20045;-87
2022/12/31 13:00:57;;;;;;;7.18;6.20;;;;;;;;;;5032758;28;20057;-87
2022/12/31 13:03:34;;;;;;;4.80;4.40;;;;;;;;;;5032829;28;20458;-87
2022/12/31 13:06:07;;;;;;;4.85;4.43;;;;;;;;;;5032783;28;20049;-87
2022/12/31 13:08:43;;;;;;;6.07;5.32;;;;;;;;;;5045407;28;20049;-87
2022/12/31 13:11:20;;;;;;;8.18;7.45;;;;;;;;;;5052922;28;20118;-87
2022/12/31 13:13:51;;;;;;;6.53;5.93;;;;;;;;;;5052596;28;20048;-87
2022/12/31 13:16:22;;;;;;;5.13;4.68;;;;;;;;;;5052644;28;20118;-88
2022/12/31 13:18:53;;;;;;;7.75;7.03;;;;;;;;;;5038333;28;20569;-87
2022/12/31 13:21:32;;;;;;;5.97;5.53;;;;;;;;;;5032455;28;20095;-87
2022/12/31 13:24:02;;;;;;;7.90;7.20;;;;;;;;;;5032226;28;20103;-87
2022/12/31 13:26:31;;;;;;;12.57;6.90;;;;;;;;;;5032496;28;20049;-87
2022/12/31 13:29:01;;;;;;;6.60;6.00;;;;;;;;;;5032513;28;20119;-88
2022/12/31 13:31:30;;;;;;;7.30;6.72;;;;;;;;;;5032566;28;20179;-87
2022/12/31 13:33:59;;;;;;;8.48;7.10;;;;;;;;;;5046717;28;20107;-87
2022/12/31 13:36:27;;;;;;;8.18;7.07;;;;;;;;;;5052396;28;20110;-87
2022/12/31 13:38:55;;;;;;;8.18;7.03;;;;;;;;;;5051823;28;20462;-87
2022/12/31 13:41:24;;;;;;;4.82;4.13;;;;;;;;;;5051935;28;20398;-87
2022/12/31 13:43:54;;;;;;;7.88;6.95;;;;;;;;;;5038852;28;20053;-87
2022/12/31 13:46:25;;;;;;;5.13;4.72;;;;;;;;;;5032370;28;20187;-87
2022/12/31 13:48:53;;;;;;;5.85;5.35;;;;;;;;;;5031720;28;20061;-87
2022/12/31 13:51:26;;;;;;;12.27;8.52;;;;;;;;;;5031815;28;20045;-85
2022/12/31 13:53:56;;;;;;;16.67;11.65;;;;;;;;;;5031884;28;20049;-86
2022/12/31 13:56:25;;;;;;;11.07;8.25;;;;;;;;;;5032232;28;20045;-85
2022/12/31 13:58:54;;;;;;;9.57;8.88;;;;;;;;;;5044503;28;20057;-85
2022/12/31 14:01:23;;;;;;;6.38;5.85;;;;;;;;;;5051917;28;20061;-85
2022/12/31 14:03:54;;;;;;;8.85;8.02;;;;;;;;;;5051447;28;20040;-86
2022/12/31 14:06:20;;;;;;;;;;;;;;;;;;5052124;28;20053;-85
2022/12/31 14:08:47;;;;;;;6.80;6.22;;;;;;;;;;5040538;28;19925;-86
2022/12/31 14:11:18;;;;;;;8.65;8.13;;;;;;;;;;5032080;28;20054;-86
2022/12/31 14:13:50;;;;;;;4.30;4.00;;;;;;;;;;5031471;28;20108;-86
2022/12/31 14:16:21;;;;;;;6.90;4.95;;;;;;;;;;5031672;28;20053;-86
2022/12/31 14:18:52;;;;;;;6.18;5.78;;;;;;;;;;5031839;28;20053;-85
2022/12/31 14:21:23;;;;;;;6.55;6.13;;;;;;;;;;5031944;28;20053;-85
2022/12/31 14:23:53;;;;;;;4.93;4.47;;;;;;;;;;5042456;28;20407;-85
2022/12/31 14:26:22;;;;;;;6.15;5.63;;;;;;;;;;5053252;28;20055;-88
2022/12/31 14:28:54;;;;;;;9.30;4.95;;;;;;;;;;5071728;28;20485;-89
2022/12/31 14:31:26;;;;;;;6.93;5.35;;;;;;;;;;5072339;28;20057;-88
2022/12/31 14:33:56;;;;;;;5.93;4.35;;;;;;;;;;5072024;28;20053;-87
2022/12/31 14:36:38;;;;;;;7.88;6.53;;;;;;;;;;5072411;28;20114;-87
2022/12/31 14:39:18;;;;;;;5.93;5.20;;;;;;;;;;5072042;28;20053;-87
2022/12/31 14:41:51;;;;;;;6.35;5.75;;;;;;;;;;5072392;28;20048;-88
2022/12/31 14:44:27;;;;;;;9.02;8.02;;;;;;;;;;5072147;28;20102;-87
2022/12/31 14:46:59;;;;;;;8.65;6.75;;;;;;;;;;5072488;28;20049;-88
2022/12/31 14:49:33;;;;;;;8.02;7.22;;;;;;;;;;5073563;28;20051;-87
2022/12/31 14:52:09;;;;;;;8.10;4.90;;;;;;;;;;5072020;28;20493;-88
2022/12/31 14:54:36;;;;;;;6.03;4.80;;;;;;;;;;5048310;28;20033;-89
2022/12/31 14:57:09;;;;;;;3.13;2.92;;;;;;;;;;5052109;28;20090;-89
2022/12/31 14:59:36;;;;;;;4.53;3.58;;;;;;;;;;5051914;28;20052;-88
2022/12/31 15:02:02;;;;;;;4.15;3.78;;;;;;;;;;5050449;28;20487;-88
2022/12/31 15:04:32;;;;;;;3.75;3.47;;;;;;;;;;5051882;28;20103;-88
2022/12/31 15:07:02;;;;;;;7.40;6.95;;;;;;;;;;5052169;28;20067;-88
2022/12/31 15:09:46;;;;;;;5.68;4.95;;;;;;;;;;5051961;28;20045;-88
2022/12/31 15:12:25;;;;;;;10.82;4.95;;;;;;;;;;5052091;28;20045;-88
2022/12/31 15:15:19;;;;;;;8.45;4.90;;;;;;;;;;5052157;28;20073;-88